createdAt,value
2022-09-09T10:26:40.944Z,0.83
2022-09-09T10:29:13.517Z,0.90
2022-09-09T10:32:06.917Z,0.80
2022-09-09T10:34:43.079Z,0.73
2022-09-09T10:37:26.486Z,0.60
2022-09-09T10:40:06.282Z,0.80
2022-09-09T10:42:33.651Z,0.67
2022-09-09T10:45:21.212Z,0.53
2022-09-09T10:48:10.988Z,0.70
2022-09-09T10:51:03.843Z,0.80
2022-09-09T10:53:46.811Z,0.90
2022-09-09T10:56:17.633Z,0.60
2022-09-09T10:58:50.338Z,0.70
2022-09-09T11:01:19.835Z,0.73
2022-09-09T11:03:53.811Z,0.83
2022-09-09T11:06:25.753Z,0.50
2022-09-09T11:08:56.529Z,0.67
2022-09-09T11:11:33.160Z,0.80
2022-09-09T11:14:06.616Z,0.53
2022-09-09T11:16:53.649Z,0.50
2022-09-09T11:19:37.012Z,0.60
2022-09-09T11:22:16.587Z,0.60
2022-09-09T11:24:51.759Z,0.53
2022-09-09T11:27:28.219Z,0.70
2022-09-09T11:30:32.321Z,0.90
2022-09-09T11:33:40.227Z,0.70
2022-09-09T11:36:26.185Z,0.80
2022-09-09T11:38:59.779Z,0.80
2022-09-09T11:41:38.551Z,0.70
2022-09-09T11:44:14.812Z,0.80
2022-09-09T11:46:42.815Z,0.90
2022-09-09T11:49:29.653Z,0.47
2022-09-09T11:51:56.715Z,0.60
2022-09-09T11:54:34.485Z,0.80
2022-09-09T11:57:03.043Z,0.50
2022-09-09T11:59:32.568Z,0.90
2022-09-09T12:02:27.725Z,0.80
2022-09-09T12:05:13.464Z,0.90
2022-09-09T12:07:47.327Z,0.80
2022-09-09T12:10:23.487Z,0.90
2022-09-09T12:12:50.699Z,0.67
2022-09-09T12:15:30.184Z,1.03
2022-09-09T12:18:03.910Z,0.70
2022-09-09T12:20:32.446Z,0.67
2022-09-09T12:23:32.404Z,0.50
2022-09-09T12:26:35.321Z,0.53
2022-09-09T12:29:34.990Z,1.10
2022-09-09T12:32:12.606Z,0.60
2022-09-09T12:34:50.090Z,0.60
2022-09-09T12:37:35.618Z,0.80
2022-09-09T12:40:08.593Z,0.67
2022-09-09T12:42:42.984Z,0.60
2022-09-09T12:45:23.193Z,0.67
2022-09-09T12:47:55.788Z,0.60
2022-09-09T12:50:30.108Z,0.60
2022-09-09T12:53:47.227Z,0.70
2022-09-09T12:56:35.424Z,0.60
2022-09-09T12:59:02.816Z,0.70
2022-09-09T13:01:37.579Z,0.50
2022-09-09T13:04:25.757Z,0.80
2022-09-09T13:06:54.222Z,0.82
2022-09-09T13:09:22.929Z,0.82
2022-09-09T13:11:56.356Z,0.80
2022-09-09T13:14:35.827Z,0.77
2022-09-09T13:17:07.169Z,0.85
2022-09-09T13:19:41.138Z,0.50
2022-09-09T13:22:22.938Z,0.60
2022-09-09T13:25:19.947Z,0.77
2022-09-09T13:27:59.839Z,0.60
2022-09-09T13:30:28.600Z,0.65
2022-09-09T13:33:14.006Z,0.60
2022-09-09T13:36:03.925Z,0.50
2022-09-09T13:38:33.603Z,0.73
2022-09-09T13:41:09.454Z,0.90
2022-09-09T13:43:42.980Z,0.77
2022-09-09T13:46:36.615Z,0.80
2022-09-09T13:49:23.892Z,0.87
2022-09-09T13:52:05.290Z,0.50
2022-09-09T13:54:32.331Z,0.83
2022-09-09T13:56:59.299Z,0.80
2022-09-09T13:59:42.446Z,0.90
2022-09-09T14:02:14.789Z,0.77
2022-09-09T14:04:44.510Z,0.80
2022-09-09T14:07:16.154Z,0.60
2022-09-09T14:09:43.526Z,0.83
2022-09-09T14:12:14.865Z,0.80
2022-09-09T14:14:43.131Z,0.70
2022-09-09T14:17:10.489Z,0.90
2022-09-09T14:19:38.185Z,0.67
2022-09-09T14:22:05.305Z,0.50
2022-09-09T14:24:32.211Z,1.23
2022-09-09T14:26:59.160Z,0.80
2022-09-09T14:29:27.819Z,0.60
2022-09-09T14:31:54.766Z,0.40
2022-09-09T14:34:21.730Z,0.60
2022-09-09T14:36:48.794Z,0.50
2022-09-09T14:39:15.676Z,0.30
2022-09-09T14:41:42.579Z,0.30
2022-09-09T14:44:09.684Z,0.33
2022-09-09T14:46:36.947Z,0.53
2022-09-09T14:49:03.964Z,0.40
2022-09-09T14:51:30.959Z,0.40
2022-09-09T14:54:00.475Z,0.57
2022-09-09T14:56:30.613Z,0.40
2022-09-09T14:58:59.577Z,0.40
2022-09-09T15:01:28.371Z,0.50
2022-09-09T15:03:56.654Z,0.40
2022-09-09T15:06:24.774Z,0.73
2022-09-09T15:08:53.502Z,0.50
2022-09-09T15:11:21.565Z,0.60
2022-09-09T15:13:53.092Z,0.47
2022-09-09T15:16:21.065Z,0.50
2022-09-09T15:18:51.602Z,0.60
2022-09-09T15:21:20.636Z,0.67
2022-09-09T15:23:48.578Z,0.70
2022-09-09T15:26:16.616Z,0.70
2022-09-09T15:28:45.401Z,0.40
2022-09-09T15:31:18.759Z,0.40
2022-09-09T15:34:03.079Z,0.57
2022-09-09T15:36:38.285Z,0.73
2022-09-09T15:39:07.625Z,0.50
2022-09-09T15:41:34.892Z,1.20
2022-09-09T15:44:02.984Z,0.73
2022-09-09T15:46:31.748Z,0.70
2022-09-09T15:49:13.957Z,0.73
2022-09-09T15:51:45.796Z,0.70
2022-09-09T15:54:15.108Z,0.80
2022-09-09T15:56:42.683Z,0.93
2022-09-09T15:59:10.085Z,1.17
2022-09-09T16:01:37.320Z,0.87
2022-09-09T16:04:04.973Z,0.60
2022-09-09T16:06:32.230Z,0.80
2022-09-09T16:09:01.965Z,0.90
2022-09-09T16:11:36.019Z,0.60
2022-09-09T16:14:05.270Z,1.13
2022-09-09T16:16:32.380Z,0.63
2022-09-09T16:19:03.299Z,0.50
2022-09-09T16:21:36.680Z,0.50
2022-09-09T16:24:05.105Z,0.67
2022-09-09T16:26:34.858Z,0.70
2022-09-09T16:29:03.090Z,0.47
2022-09-09T16:31:31.037Z,0.50
2022-09-09T16:33:58.924Z,0.60
2022-09-09T16:36:28.692Z,0.40
2022-09-09T16:38:58.446Z,0.70
2022-09-09T16:41:26.976Z,0.60
2022-09-09T16:44:08.350Z,0.93
2022-09-09T16:46:39.814Z,0.60
2022-09-09T16:49:09.803Z,0.43
2022-09-09T16:51:48.452Z,0.67
2022-09-09T16:54:18.247Z,0.50
2022-09-09T16:56:47.340Z,0.53
2022-09-09T16:59:16.937Z,0.73
2022-09-09T17:01:46.649Z,0.50
2022-09-09T17:04:21.195Z,0.50
2022-09-09T17:06:52.527Z,0.80
2022-09-09T17:09:20.842Z,0.77
2022-09-09T17:11:48.946Z,0.87
2022-09-09T17:14:18.600Z,0.60
2022-09-09T17:16:45.951Z,0.80
2022-09-09T17:19:13.993Z,0.60
2022-09-09T17:21:55.001Z,0.70
2022-09-09T17:24:30.036Z,0.90
2022-09-09T17:26:58.481Z,0.60
2022-09-09T17:29:26.038Z,0.60
2022-09-09T17:31:53.372Z,0.50
2022-09-09T17:34:20.369Z,0.60
2022-09-09T17:36:47.948Z,0.67
2022-09-09T17:39:14.923Z,0.50
2022-09-09T17:41:42.371Z,0.67
2022-09-09T17:44:10.759Z,0.60
2022-09-09T17:46:44.031Z,0.30
2022-09-09T17:49:13.959Z,0.40
2022-09-09T17:51:42.875Z,0.50
2022-09-09T17:54:15.716Z,0.47
2022-09-09T17:56:43.048Z,0.50
2022-09-09T17:59:14.023Z,0.40
2022-09-09T18:01:45.027Z,0.77
2022-09-09T18:04:14.299Z,0.70
2022-09-09T18:06:47.071Z,0.50
2022-09-09T18:09:17.967Z,0.57
2022-09-09T18:11:47.513Z,0.73
2022-09-09T18:14:18.124Z,0.80
2022-09-09T18:16:46.029Z,0.60
2022-09-09T18:19:16.403Z,0.80
2022-09-09T18:21:44.666Z,0.83
2022-09-09T18:24:13.315Z,0.70
2022-09-09T18:26:41.108Z,0.70
2022-09-09T18:29:11.330Z,0.70
2022-09-09T18:31:38.928Z,0.50
2022-09-09T18:34:09.270Z,0.70
2022-09-09T18:36:44.506Z,0.60
2022-09-09T18:39:13.747Z,0.73
2022-09-09T18:41:46.516Z,1.00
2022-09-09T18:44:16.664Z,0.87
2022-09-09T18:46:44.486Z,1.10
2022-09-09T18:49:12.639Z,1.07
2022-09-09T18:51:41.319Z,0.80
2022-09-09T18:54:13.492Z,0.87
2022-09-09T18:56:41.388Z,0.97
2022-09-09T18:59:11.187Z,0.77
2022-09-09T19:01:38.326Z,0.80
2022-09-09T19:04:07.119Z,0.80
2022-09-09T19:06:38.063Z,0.77
2022-09-09T19:09:05.985Z,0.80
2022-09-09T19:11:33.741Z,1.03
2022-09-09T19:14:03.005Z,1.13
2022-09-09T19:16:33.829Z,1.10
2022-09-09T19:19:04.388Z,0.93
2022-09-09T19:21:34.053Z,1.20
2022-09-09T19:24:15.717Z,0.60
2022-09-09T19:26:45.756Z,2.00
2022-09-09T19:29:16.335Z,1.70
2022-09-09T19:32:01.999Z,1.20
2022-09-09T19:34:31.793Z,1.23
2022-09-09T19:36:58.800Z,1.10
2022-09-09T19:39:26.606Z,0.90
2022-09-09T19:41:53.506Z,1.23
2022-09-09T19:44:20.515Z,1.00
2022-09-09T19:46:47.413Z,1.13
2022-09-09T19:49:18.139Z,1.07
2022-09-09T19:51:46.881Z,0.87
2022-09-09T19:54:14.197Z,1.00
2022-09-09T19:56:42.832Z,1.03
2022-09-09T19:59:11.768Z,1.13
2022-09-09T20:01:41.978Z,1.00
2022-09-09T20:04:09.343Z,1.33
2022-09-09T20:06:39.792Z,1.10
2022-09-09T20:09:08.484Z,1.80
2022-09-09T20:11:35.455Z,1.90
2022-09-09T20:14:02.482Z,1.30
2022-09-09T20:16:31.034Z,1.70
2022-09-09T20:19:01.918Z,1.70
2022-09-09T20:21:35.152Z,1.40
2022-09-09T20:24:05.890Z,1.20
2022-09-09T20:26:35.234Z,1.30
2022-09-09T20:29:07.684Z,1.10
2022-09-09T20:31:37.112Z,1.00
2022-09-09T20:34:06.156Z,1.10
2022-09-09T20:36:35.544Z,0.80
2022-09-09T20:39:16.999Z,0.90
2022-09-09T20:41:47.360Z,1.00
2022-09-09T20:44:23.603Z,1.20
2022-09-09T20:46:55.524Z,0.90
2022-09-09T20:49:24.385Z,1.00
2022-09-09T20:51:53.574Z,1.00
2022-09-09T20:54:26.771Z,1.10
2022-09-09T20:56:55.455Z,1.00
2022-09-09T20:59:26.319Z,1.30
2022-09-09T21:01:55.244Z,1.33
2022-09-09T21:04:25.043Z,1.20
2022-09-09T21:06:52.269Z,1.40
2022-09-09T21:09:23.210Z,1.20
2022-09-09T21:11:50.760Z,1.03
2022-09-09T21:14:17.719Z,1.07
2022-09-09T21:16:45.828Z,1.00
2022-09-09T21:19:13.083Z,1.13
2022-09-09T21:21:40.134Z,1.30
2022-09-09T21:24:07.291Z,1.50
2022-09-09T21:26:35.568Z,1.57
2022-09-09T21:29:02.752Z,2.00
2022-09-09T21:31:29.831Z,1.20
2022-09-09T21:33:58.143Z,1.43
2022-09-09T21:36:27.239Z,1.20
2022-09-09T21:38:54.166Z,1.30
2022-09-09T21:41:21.625Z,1.07
2022-09-09T21:43:52.600Z,1.33
2022-09-09T21:46:20.229Z,1.20
2022-09-09T21:48:47.235Z,1.30
2022-09-09T21:51:16.534Z,1.70
2022-09-09T21:53:43.976Z,1.17
2022-09-09T21:56:16.440Z,1.20
2022-09-09T21:58:43.769Z,1.37
2022-09-09T22:01:16.417Z,1.10
2022-09-09T22:03:44.340Z,1.20
2022-09-09T22:06:14.628Z,1.00
2022-09-09T22:08:42.798Z,1.00
2022-09-09T22:11:18.936Z,0.83
2022-09-09T22:13:46.251Z,1.07
2022-09-09T22:16:15.509Z,1.33
2022-09-09T22:18:43.001Z,1.40
2022-09-09T22:21:18.277Z,1.00
2022-09-09T22:23:50.359Z,1.10
2022-09-09T22:26:17.506Z,1.27
2022-09-09T22:28:44.437Z,1.50
2022-09-09T22:31:11.652Z,1.10
2022-09-09T22:33:38.580Z,1.50
2022-09-09T22:36:05.899Z,1.47
2022-09-09T22:38:36.520Z,1.30
2022-09-09T22:41:04.350Z,1.40
2022-09-09T22:43:35.117Z,1.50
2022-09-09T22:46:02.547Z,1.60
2022-09-09T22:48:33.711Z,1.70
2022-09-09T22:51:05.287Z,1.80
2022-09-09T22:53:36.156Z,1.70
2022-09-09T22:56:07.703Z,1.23
2022-09-09T22:58:36.927Z,1.50
2022-09-09T23:01:19.340Z,1.53
2022-09-09T23:03:47.131Z,1.60
2022-09-09T23:06:22.207Z,2.00
2022-09-09T23:08:58.593Z,1.70
2022-09-09T23:11:31.526Z,1.40
2022-09-09T23:14:00.846Z,1.40
2022-09-09T23:16:32.970Z,1.50
2022-09-09T23:19:03.056Z,1.00
2022-09-09T23:21:31.006Z,1.00
2022-09-09T23:23:59.635Z,1.33
2022-09-09T23:26:29.815Z,1.50
2022-09-09T23:28:58.564Z,1.10
2022-09-09T23:31:29.288Z,1.20
2022-09-09T23:33:58.084Z,1.57
2022-09-09T23:36:25.838Z,1.17
2022-09-09T23:38:56.217Z,1.00
2022-09-09T23:41:23.519Z,0.90
2022-09-09T23:43:52.699Z,1.00
2022-09-09T23:46:22.481Z,1.13
2022-09-09T23:48:52.195Z,1.20
2022-09-09T23:51:24.163Z,1.07
2022-09-09T23:53:57.119Z,1.10
2022-09-09T23:56:28.279Z,1.03
2022-09-09T23:58:55.639Z,1.10
